Hovedside
METAR-TAF:

METAR-TAF

Lufthavner :

Hammerfest, Norge

Hammerfest lufthavn

breddegrad: 70-40N, lengdegrad: 023-40E, høyde over havet: 8 m

Gjeldene værobservasjon

Denne rapporten ble laget for 30 minutter siden, klokken 18:50 UTC
Vind 2 kt fra skiftende retning
Temperatur 2°C
Luftfuktighet 64%
Trykk 1020 hPa
Sikt 10 km eller mer

METAR: ENHF 271850Z AUTO VRB02KT 9999 NCD 02/M04 Q1020 RMK WIND 1254FT 35003KT

Tid: 21:20 (19:20 UTC)

Varsel

Denne rapporten ble laget for 11 timer og 20 minutter siden, klokken 08:00 UTC
Varsel gyldig fra 27. klokken 09 UTC til 27. klokken 13 UTC
Vind 8 kt fra skiftende retning
Sikt 10 km eller mer
Få skyer i en høyde av 1000 ft
Spredte skyer i en høyde av 3000 ft
Sannsynlighet 40%
fra 27. klokken 09 UTC til 27. klokken 12 UTC
Sikt: 1000 m
i en høyde av 700 ft
snøbyger

TAF: ENHF 270800Z 2709/2713 VRB08KT 9999 FEW010 SCT030 PROB40 2709/2712 1000 SHSN VV007

Værobservasjoner og værvarsel for over 4000 flyplasser (METAR- og TAF-rapporter).

Tilgjengelige stasjoner er representert av de røde og gule prikkene på kartet.

Hold musepekeren over prikken for å se navnet på stasjonen.

Klikk så for å se værobservasjoner og -varsler.

For å forandre kartet kan du klikke på den grønne knappen med svart kryss for å zoome inn, på den grønne knappen med strek for å zoome ut, eller på de grønne pilene for å se tilstøtende kart.


METAR-TAF: